Time;durP1;ratioP1;P1;durP2;ratioP2;P2;SDS_P1;SDS_P2;PMS_P1;PMS_P2;Temp;Humidity;BMP_temperature;BMP_pressure;BME280_temperature;BME280_humidity;BME280_pressure;Samples;Min_cycle;Max_cycle;Signal;HPM_P1;HPM_P2
2022/02/05 00:01:54;;;;;;;10.03;8.90;;;4.70;94.30;;;;;;6211807;28;20575;-67
2022/02/05 00:04:58;;;;;;;10.10;8.20;;;4.80;94.40;;;;;;6222751;28;20472;-65
2022/02/05 00:08:23;;;;;;;8.80;6.90;;;4.80;94.30;;;;;;6226155;28;20885;-66
2022/02/05 00:11:59;;;;;;;11.87;8.03;;;4.70;94.80;;;;;;6226002;28;20479;-64
2022/02/05 00:15:23;;;;;;;9.80;7.60;;;4.80;94.60;;;;;;6225082;28;20480;-65
2022/02/05 00:38:55;;;;;;;15.77;9.43;;;4.60;95.60;;;;;;6204862;28;20473;-65
2022/02/05 00:42:10;;;;;;;13.77;9.67;;;4.70;95.70;;;;;;6205008;28;20472;-65
2022/02/05 00:45:13;;;;;;;11.07;9.53;;;4.70;95.60;;;;;;6205837;28;20488;-64
2022/02/05 00:48:18;;;;;;;9.53;8.53;;;4.70;95.70;;;;;;6194519;28;20497;-65
2022/02/05 00:51:27;;;;;;;11.40;9.43;;;4.70;95.90;;;;;;6205588;28;20476;-63
2022/02/05 00:54:30;;;;;;;11.07;9.93;;;4.80;95.90;;;;;;6204494;28;20980;-64
2022/02/05 00:57:45;;;;;;;18.97;13.50;;;4.80;95.80;;;;;;6227970;28;20475;-64
2022/02/05 01:00:48;;;;;;;15.23;10.27;;;4.80;95.50;;;;;;6229630;28;20482;-67
2022/02/05 01:03:51;;;;;;;13.90;9.30;;;4.70;95.20;;;;;;6228242;28;20958;-68
2022/02/05 01:06:55;;;;;;;10.40;8.90;;;4.70;95.30;;;;;;6215111;28;20882;-67
2022/02/05 01:09:58;;;;;;;11.57;9.07;;;4.70;95.10;;;;;;6228581;28;20503;-67
2022/02/05 01:13:06;;;;;;;10.73;8.70;;;4.70;95.50;;;;;;6228383;28;20476;-68
2022/02/05 01:16:16;;;;;;;13.07;9.57;;;4.60;95.10;;;;;;6228846;28;20491;-68
2022/02/05 01:19:42;;;;;;;10.20;9.13;;;4.60;95.30;;;;;;6228393;28;20483;-68
2022/02/05 01:22:48;;;;;;;10.10;8.20;;;4.60;95.30;;;;;;6228291;28;20483;-67
2022/02/05 01:25:59;;;;;;;12.63;8.83;;;4.60;95.40;;;;;;6222130;28;20475;-67
2022/02/05 01:29:07;;;;;;;10.00;8.93;;;4.60;95.50;;;;;;6214565;28;20843;-68
2022/02/05 01:32:16;;;;;;;9.83;8.83;;;4.50;95.50;;;;;;6221961;28;20573;-67
2022/02/05 01:35:27;;;;;;;12.27;9.20;;;4.50;95.60;;;;;;6217454;28;20476;-67
2022/02/05 01:52:15;;;;;;;11.40;9.17;;;4.40;96.20;;;;;;6168506;28;20982;-67
2022/02/05 01:55:34;;;;;;;12.47;9.23;;;4.40;96.10;;;;;;6175950;28;20473;-68
2022/02/05 01:58:52;;;;;;;9.77;8.80;;;4.40;96.10;;;;;;6203380;28;20488;-67
2022/02/05 02:05:26;;;;;;;16.73;9.90;;;4.40;96.10;;;;;;6227606;28;20464;-68
2022/02/05 02:11:54;;;;;;;10.27;9.23;;;4.20;96.40;;;;;;6227462;28;21023;-68
2022/02/05 02:15:01;;;;;;;10.40;9.40;;;4.20;96.50;;;;;;6227555;28;20484;-68
2022/02/05 02:18:17;;;;;;;16.57;10.43;;;4.10;96.70;;;;;;6227692;28;20952;-68
2022/02/05 02:21:30;;;;;;;12.40;9.60;;;4.20;96.90;;;;;;6227498;28;20622;-68
2022/02/05 02:24:42;;;;;;;12.23;9.30;;;4.20;96.90;;;;;;6227604;28;20476;-66
2022/02/05 02:27:53;;;;;;;16.80;9.93;;;4.20;96.90;;;;;;6230066;28;20475;-66
2022/02/05 02:31:03;;;;;;;10.07;8.97;;;4.20;96.80;;;;;;6227183;28;20478;-67
2022/02/05 02:34:10;;;;;;;11.30;9.33;;;4.20;96.70;;;;;;6226972;28;20480;-67
2022/02/05 02:37:20;;;;;;;11.10;9.50;;;4.20;97.00;;;;;;6226850;28;20487;-67
2022/02/05 02:40:31;;;;;;;8.73;7.90;;;4.10;96.80;;;;;;6226514;28;20538;-67
2022/02/05 02:43:35;;;;;;;11.03;8.53;;;4.00;97.00;;;;;;6226467;28;20490;-68
2022/02/05 02:46:39;;;;;;;10.70;8.87;;;4.00;96.90;;;;;;6226437;28;20553;-68
2022/02/05 02:49:52;;;;;;;10.07;8.57;;;4.00;97.00;;;;;;6226316;28;20978;-68
2022/02/05 02:56:33;;;;;;;10.83;8.37;;;3.80;97.20;;;;;;6250693;28;20811;-68
2022/02/05 02:59:48;;;;;;;7.23;6.53;;;3.70;97.20;;;;;;6250027;28;20478;-67
2022/02/05 03:02:51;;;;;;;12.20;7.90;;;3.70;97.20;;;;;;6250326;28;20836;-67
2022/02/05 03:05:54;;;;;;;11.37;8.47;;;3.70;97.30;;;;;;6250299;28;20478;-67
2022/02/05 03:08:59;;;;;;;9.77;8.77;;;3.70;97.30;;;;;;6250635;28;20475;-67
2022/02/05 03:12:02;;;;;;;6.80;6.20;;;3.70;97.30;;;;;;6251394;28;20467;-67
2022/02/05 03:15:08;;;;;;;9.70;8.47;;;3.70;97.40;;;;;;6251262;28;20966;-67
2022/02/05 03:18:15;;;;;;;11.30;9.47;;;3.70;97.60;;;;;;6250657;28;20472;-66
2022/02/05 03:21:18;;;;;;;14.13;9.53;;;3.70;97.40;;;;;;6229894;28;20487;-67
2022/02/05 03:24:22;;;;;;;11.43;8.13;;;3.60;97.30;;;;;;6209618;28;20547;-66
2022/02/05 03:27:26;;;;;;;9.80;8.50;;;3.60;97.30;;;;;;6211066;28;20469;-67
2022/02/05 03:30:29;;;;;;;8.70;7.90;;;3.50;97.40;;;;;;6211363;28;20499;-68
2022/02/05 03:33:32;;;;;;;11.50;9.40;;;3.50;97.60;;;;;;6220449;28;20481;-68
2022/02/05 03:36:39;;;;;;;16.00;9.30;;;3.50;97.80;;;;;;6226578;28;20951;-68
2022/02/05 03:39:44;;;;;;;10.30;8.30;;;3.40;97.90;;;;;;6225366;28;20476;-67
2022/02/05 03:42:47;;;;;;;15.00;9.80;;;3.50;97.80;;;;;;6225483;28;20472;-68
2022/02/05 03:45:50;;;;;;;11.53;7.67;;;3.50;97.70;;;;;;6225886;28;20534;-67
2022/02/05 03:48:53;;;;;;;9.70;7.57;;;3.50;97.60;;;;;;6225782;28;20464;-67
2022/02/05 03:51:57;;;;;;;8.43;7.60;;;3.40;97.60;;;;;;6225860;28;20487;-67
2022/02/05 03:55:01;;;;;;;10.70;7.23;;;3.40;98.00;;;;;;6225696;28;20495;-67
2022/02/05 03:58:05;;;;;;;8.53;7.63;;;3.40;97.60;;;;;;6228207;28;20893;-67
2022/02/05 04:01:08;;;;;;;9.40;7.63;;;3.30;97.70;;;;;;6225821;28;20487;-67
2022/02/05 04:04:11;;;;;;;13.20;10.63;;;3.30;97.90;;;;;;6225294;28;20468;-67
2022/02/05 04:07:14;;;;;;;14.20;9.43;;;3.20;97.90;;;;;;6225755;28;20475;-67
2022/02/05 04:10:25;;;;;;;10.80;9.60;;;3.30;97.90;;;;;;6225024;28;20479;-67
2022/02/05 04:16:49;;;;;;;8.87;7.97;;;3.20;98.10;;;;;;6225006;28;20543;-67
2022/02/05 04:19:52;;;;;;;8.57;7.73;;;3.30;98.20;;;;;;6224832;28;20494;-67
2022/02/05 04:22:56;;;;;;;9.03;7.43;;;3.30;98.10;;;;;;6225287;28;20476;-66
2022/02/05 04:26:01;;;;;;;8.30;6.70;;;3.30;98.10;;;;;;6225606;28;20468;-66
2022/02/05 04:29:07;;;;;;;11.33;6.73;;;3.30;98.10;;;;;;6228690;28;20456;-66
2022/02/05 04:32:13;;;;;;;8.90;7.40;;;3.30;98.20;;;;;;6234148;28;20496;-67
2022/02/05 04:35:17;;;;;;;13.17;7.90;;;3.20;98.10;;;;;;6228734;28;20459;-67
2022/02/05 04:38:21;;;;;;;7.50;6.70;;;3.20;98.30;;;;;;6226849;28;20444;-66
2022/02/05 04:41:33;;;;;;;6.73;6.13;;;3.20;98.40;;;;;;6224978;28;20499;-68
2022/02/05 04:44:55;;;;;;;8.47;7.40;;;3.10;98.30;;;;;;6225672;28;20486;-67
2022/02/05 04:48:24;;;;;;;8.13;7.33;;;3.10;98.30;;;;;;6224676;28;20475;-67
2022/02/05 04:55:12;;;;;;;8.80;7.30;;;3.00;98.40;;;;;;6169136;28;20972;-68
2022/02/05 04:58:51;;;;;;;9.43;7.17;;;3.00;98.60;;;;;;6199778;28;20862;-68
2022/02/05 05:05:23;;;;;;;12.40;9.80;;;3.10;98.60;;;;;;6221012;28;20518;-68
2022/02/05 05:08:39;;;;;;;11.27;8.00;;;3.00;98.60;;;;;;6224326;28;20476;-68
2022/02/05 05:11:49;;;;;;;9.93;7.70;;;3.00;98.60;;;;;;6224383;28;20499;-68
2022/02/05 05:21:35;;;;;;;7.40;6.67;;;2.80;99.00;;;;;;6224138;28;20472;-68
2022/02/05 05:24:38;;;;;;;10.27;7.63;;;2.70;99.00;;;;;;6226446;28;20480;-68
2022/02/05 05:27:41;;;;;;;8.03;7.27;;;2.80;99.20;;;;;;6228702;28;20479;-68
2022/02/05 05:30:46;;;;;;;8.03;7.10;;;2.80;99.30;;;;;;6229701;28;20518;-68
2022/02/05 05:33:49;;;;;;;7.17;6.30;;;2.80;99.30;;;;;;6227937;28;20982;-68
2022/02/05 05:36:53;;;;;;;8.83;6.80;;;2.80;99.40;;;;;;6228152;28;20839;-68
2022/02/05 05:39:56;;;;;;;9.27;6.20;;;2.80;99.60;;;;;;6228108;28;20483;-68
2022/02/05 05:43:03;;;;;;;7.67;6.87;;;2.80;99.60;;;;;;6228093;28;20467;-68
2022/02/05 05:46:19;;;;;;;9.40;6.33;;;2.80;99.70;;;;;;6227833;28;20476;-68
2022/02/05 05:49:34;;;;;;;10.53;6.60;;;2.80;99.70;;;;;;6227885;28;20988;-67
2022/02/05 05:52:37;;;;;;;7.00;6.40;;;2.70;99.70;;;;;;6227971;28;20810;-67
2022/02/05 05:55:43;;;;;;;9.80;7.37;;;2.60;99.70;;;;;;6227440;28;20565;-67
2022/02/05 05:58:46;;;;;;;7.73;6.57;;;2.60;99.80;;;;;;6227353;28;20494;-67
2022/02/05 06:01:51;;;;;;;12.50;7.40;;;2.60;99.90;;;;;;6227586;28;20943;-66
2022/02/05 06:04:54;;;;;;;7.73;6.90;;;2.50;99.90;;;;;;6224168;28;20472;-66
2022/02/05 06:07:57;;;;;;;8.50;7.70;;;2.50;99.90;;;;;;6223126;28;20810;-67
2022/02/05 06:11:00;;;;;;;10.70;7.27;;;2.50;99.90;;;;;;6227123;28;20486;-66
2022/02/05 06:14:03;;;;;;;8.43;7.53;;;2.50;99.90;;;;;;6227239;28;20478;-67
2022/02/05 06:17:08;;;;;;;8.03;6.50;;;2.50;99.90;;;;;;6226911;28;20452;-67
2022/02/05 06:20:12;;;;;;;8.57;7.23;;;2.50;99.90;;;;;;6227000;28;20478;-67
2022/02/05 06:23:15;;;;;;;8.43;7.00;;;2.50;99.90;;;;;;6227375;28;20476;-67
2022/02/05 06:26:18;;;;;;;9.47;6.70;;;2.50;99.90;;;;;;6227124;28;20455;-67
2022/02/05 06:29:21;;;;;;;7.50;6.73;;;2.60;99.90;;;;;;6226534;28;20816;-68
2022/02/05 06:32:26;;;;;;;8.67;7.03;;;2.60;99.90;;;;;;6226326;28;20478;-67
2022/02/05 06:35:29;;;;;;;9.53;7.30;;;2.70;99.90;;;;;;6226917;28;20479;-68
2022/02/05 06:38:32;;;;;;;9.10;5.73;;;2.70;99.90;;;;;;6226532;28;20467;-67
2022/02/05 06:41:35;;;;;;;7.43;6.73;;;2.70;99.90;;;;;;6227002;28;20480;-67
2022/02/05 06:44:39;;;;;;;5.47;4.97;;;2.80;99.90;;;;;;6226138;28;20494;-67
2022/02/05 06:47:44;;;;;;;3.83;3.53;;;2.90;99.90;;;;;;6226290;28;21003;-67
2022/02/05 06:50:47;;;;;;;5.10;3.17;;;3.20;99.90;;;;;;6226827;28;20490;-67
2022/02/05 06:53:50;;;;;;;1.93;1.73;;;3.50;99.90;;;;;;6226422;28;20475;-67
2022/02/05 06:56:53;;;;;;;1.90;1.57;;;3.90;99.90;;;;;;6226227;28;20468;-67
2022/02/05 06:59:56;;;;;;;2.30;1.33;;;4.40;99.90;;;;;;6227318;28;20476;-67
2022/02/05 07:03:01;;;;;;;2.00;1.53;;;4.70;99.90;;;;;;6226224;28;20476;-67
2022/02/05 07:06:05;;;;;;;2.20;1.77;;;5.10;99.60;;;;;;6226706;28;20479;-67
2022/02/05 07:09:08;;;;;;;1.47;1.37;;;5.40;98.90;;;;;;6226396;28;20479;-67
2022/02/05 07:12:12;;;;;;;1.83;1.60;;;5.70;98.20;;;;;;6226127;28;20495;-67
2022/02/05 07:15:20;;;;;;;1.40;1.30;;;6.00;97.10;;;;;;6225744;28;20510;-67
2022/02/05 07:18:32;;;;;;;1.33;1.23;;;6.10;96.50;;;;;;6225658;28;20803;-67
2022/02/05 07:21:39;;;;;;;1.20;1.10;;;6.30;95.50;;;;;;6226631;28;20472;-67
2022/02/05 07:24:59;;;;;;;1.53;1.43;;;6.40;95.30;;;;;;6226705;28;20875;-67
2022/02/05 07:31:24;;;;;;;2.20;1.80;;;6.80;93.90;;;;;;6225657;28;20482;-67
2022/02/05 07:34:31;;;;;;;2.00;1.73;;;7.00;93.60;;;;;;6214584;28;20488;-67
2022/02/05 07:37:34;;;;;;;1.83;1.63;;;7.10;93.00;;;;;;6213546;28;20526;-68
2022/02/05 07:40:37;;;;;;;2.63;2.30;;;7.20;92.90;;;;;;6211354;28;20483;-68
2022/02/05 07:43:41;;;;;;;2.43;2.00;;;7.40;92.70;;;;;;6210458;28;20469;-67
2022/02/05 07:46:47;;;;;;;2.10;1.90;;;7.60;92.30;;;;;;6213156;28;20517;-68
2022/02/05 07:49:51;;;;;;;2.17;1.97;;;7.70;91.70;;;;;;6210320;28;20941;-67
2022/02/05 07:52:55;;;;;;;1.67;1.57;;;7.60;91.30;;;;;;6213372;28;20531;-67
2022/02/05 07:55:58;;;;;;;3.47;2.47;;;7.50;91.50;;;;;;6219234;28;20545;-66
2022/02/05 07:59:01;;;;;;;3.07;2.23;;;7.40;91.30;;;;;;6210452;28;20487;-66
2022/02/05 08:02:05;;;;;;;2.90;2.13;;;7.30;91.40;;;;;;6213167;28;20518;-67
2022/02/05 08:05:10;;;;;;;2.27;2.03;;;7.20;91.50;;;;;;6212228;28;20794;-66
2022/02/05 08:08:17;;;;;;;2.40;2.20;;;7.20;91.50;;;;;;6216186;28;20518;-67
2022/02/05 08:11:22;;;;;;;2.10;2.00;;;7.20;91.50;;;;;;6212711;28;20910;-67
2022/02/05 08:14:27;;;;;;;2.10;1.90;;;7.20;91.70;;;;;;6206924;28;20484;-67
2022/02/05 08:17:34;;;;;;;1.70;1.60;;;7.10;91.80;;;;;;6204185;28;20469;-67
2022/02/05 08:20:38;;;;;;;2.50;2.30;;;7.10;91.30;;;;;;6210395;28;20983;-67
2022/02/05 08:23:41;;;;;;;1.43;1.33;;;7.10;91.10;;;;;;6200500;28;20469;-67
2022/02/05 08:26:45;;;;;;;2.37;1.50;;;7.20;90.70;;;;;;6200786;28;20488;-67
2022/02/05 08:29:54;;;;;;;1.50;1.40;;;7.30;90.60;;;;;;6209844;28;20545;-67
2022/02/05 08:32:58;;;;;;;1.90;1.40;;;7.30;90.40;;;;;;6225394;28;20480;-67
2022/02/05 08:36:04;;;;;;;1.07;1.00;;;7.50;90.30;;;;;;6224773;28;20479;-66
2022/02/05 08:39:07;;;;;;;1.20;1.10;;;7.60;89.90;;;;;;6224245;28;20767;-67
2022/02/05 08:42:11;;;;;;;1.07;0.97;;;7.70;87.70;;;;;;6224397;28;20547;-67
2022/02/05 08:45:14;;;;;;;1.43;1.33;;;7.80;85.20;;;;;;6223919;28;20782;-67
2022/02/05 08:48:17;;;;;;;2.33;1.20;;;7.90;84.20;;;;;;6224304;28;20480;-67
2022/02/05 08:51:22;;;;;;;0.93;0.93;;;8.00;83.80;;;;;;6224147;28;20795;-67
2022/02/05 08:54:25;;;;;;;0.90;0.90;;;8.10;83.20;;;;;;6223994;28;20826;-67
2022/02/05 08:57:29;;;;;;;1.40;0.97;;;8.30;82.60;;;;;;6224628;28;20480;-67
2022/02/05 09:00:32;;;;;;;1.40;1.30;;;8.40;82.10;;;;;;6228040;28;20475;-67
2022/02/05 09:03:46;;;;;;;4.37;2.67;;;8.50;80.30;;;;;;6225519;28;20483;-67
2022/02/05 09:06:50;;;;;;;2.50;1.50;;;8.70;79.20;;;;;;6228758;28;20545;-67
2022/02/05 09:10:04;;;;;;;2.40;2.20;;;8.80;78.50;;;;;;6228958;28;20994;-67
2022/02/05 09:13:35;;;;;;;2.80;1.93;;;8.90;77.70;;;;;;6228556;28;20479;-68
2022/02/05 09:16:37;;;;;;;1.37;1.20;;;9.00;76.60;;;;;;6228823;28;20472;-67
2022/02/05 09:19:40;;;;;;;1.40;0.60;;;9.10;74.70;;;;;;6221330;28;20556;-67
2022/02/05 09:22:45;;;;;;;0.70;0.70;;;9.10;69.20;;;;;;6216051;28;20553;-67
2022/02/05 09:25:48;;;;;;;0.90;0.70;;;9.10;66.50;;;;;;6216110;28;20530;-67
2022/02/05 09:28:52;;;;;;;0.70;0.70;;;9.30;64.20;;;;;;6214938;28;20522;-67
2022/02/05 09:31:55;;;;;;;2.77;0.70;;;9.40;63.30;;;;;;6214260;28;20570;-67
2022/02/05 09:34:59;;;;;;;0.73;0.70;;;9.50;61.50;;;;;;6203847;28;20767;-67
2022/02/05 09:38:04;;;;;;;1.23;0.50;;;9.70;58.70;;;;;;6204010;28;20491;-68
2022/02/05 09:41:07;;;;;;;1.93;0.67;;;9.90;57.70;;;;;;6204077;28;20457;-67
2022/02/05 09:44:11;;;;;;;0.80;0.70;;;10.10;55.80;;;;;;6204380;28;20767;-66
2022/02/05 09:47:14;;;;;;;1.27;0.60;;;10.20;54.60;;;;;;6225205;28;20451;-66
2022/02/05 09:50:20;;;;;;;1.50;0.70;;;10.60;53.80;;;;;;6227859;28;20477;-67
2022/02/05 09:53:24;;;;;;;1.07;0.90;;;13.80;49.70;;;;;;6227752;28;20470;-67
2022/02/05 09:56:30;;;;;;;0.90;0.50;;;18.40;38.60;;;;;;6226816;28;20462;-67
2022/02/05 09:59:39;;;;;;;0.80;0.50;;;21.50;30.50;;;;;;6227564;28;20238;-68
2022/02/05 10:02:42;;;;;;;1.00;0.57;;;24.40;26.70;;;;;;6228590;28;20231;-67
2022/02/05 10:05:45;;;;;;;2.50;0.83;;;27.50;23.70;;;;;;6209070;28;20232;-67
2022/02/05 10:08:58;;;;;;;0.70;0.30;;;30.00;20.60;;;;;;6203406;28;20246;-65
2022/02/05 10:12:03;;;;;;;3.08;0.77;;;31.60;18.50;;;;;;6203116;28;20251;-68
2022/02/05 10:15:06;;;;;;;0.90;0.43;;;32.70;16.70;;;;;;6214577;28;20710;-69
2022/02/05 10:18:23;;;;;;;0.80;0.40;;;32.90;16.00;;;;;;6230222;28;20663;-70
2022/02/05 10:21:28;;;;;;;0.73;0.40;;;33.50;15.90;;;;;;6226482;28;20224;-68
2022/02/05 10:24:32;;;;;;;1.30;0.35;;;34.20;14.70;;;;;;6229686;28;20228;-68
2022/02/05 10:27:40;;;;;;;1.08;0.50;;;35.10;13.90;;;;;;6236203;28;20294;-70
2022/02/05 10:30:46;;;;;;;1.25;0.40;;;35.50;13.40;;;;;;6231952;28;20240;-68
2022/02/05 10:34:05;;;;;;;0.80;0.55;;;35.30;13.10;;;;;;6227284;28;20252;-68
2022/02/05 10:37:19;;;;;;;0.60;0.40;;;36.10;12.70;;;;;;6202715;28;20242;-67
2022/02/05 10:40:40;;;;;;;3.72;3.42;;;37.30;12.80;;;;;;6202826;28;20241;-69
2022/02/05 10:43:42;;;;;;;4.82;4.18;;;38.20;14.90;;;;;;6203351;28;20293;-67
2022/02/05 10:46:45;;;;;;;4.10;3.70;;;37.80;15.40;;;;;;6203735;28;20736;-67
2022/02/05 10:49:51;;;;;;;5.20;4.68;;;37.70;15.40;;;;;;6202887;28;20236;-67
2022/02/05 10:52:59;;;;;;;6.15;4.55;;;36.20;15.80;;;;;;6207604;28;20224;-67
2022/02/05 10:56:11;;;;;;;5.13;4.70;;;32.10;17.80;;;;;;6224929;28;20315;-66
2022/02/05 10:59:30;;;;;;;5.87;5.27;;;30.10;19.70;;;;;;6226312;28;20684;-67
2022/02/05 11:05:57;;;;;;;3.57;3.10;;;26.70;22.50;;;;;;6226989;28;20256;-67
2022/02/05 11:09:01;;;;;;;1.07;0.97;;;28.60;20.10;;;;;;6226919;28;20232;-68
2022/02/05 11:12:22;;;;;;;1.63;0.40;;;30.50;15.50;;;;;;6226696;28;20239;-67
2022/02/05 11:18:55;;;;;;;3.83;1.00;;;33.30;12.60;;;;;;6219215;28;20255;-68
2022/02/05 11:22:20;;;;;;;0.80;0.50;;;34.20;12.10;;;;;;6226047;28;20241;-67
2022/02/05 11:25:28;;;;;;;1.88;0.35;;;34.90;11.50;;;;;;6220756;28;20225;-66
2022/02/05 11:28:46;;;;;;;0.75;0.50;;;34.80;11.40;;;;;;6226574;28;20739;-68
2022/02/05 11:31:54;;;;;;;1.00;0.35;;;35.70;10.90;;;;;;6202083;28;20253;-68
2022/02/05 11:35:07;;;;;;;1.55;0.75;;;34.90;10.50;;;;;;6215777;28;20224;-69
2022/02/05 11:38:11;;;;;;;1.98;0.60;;;33.00;11.10;;;;;;6202271;28;20232;-69
2022/02/05 11:41:26;;;;;;;1.08;0.35;;;32.70;12.00;;;;;;6224529;28;20208;-67
2022/02/05 11:44:39;;;;;;;0.65;0.32;;;33.20;11.60;;;;;;6226530;28;20304;-69
2022/02/05 11:47:43;;;;;;;0.82;0.45;;;33.60;11.50;;;;;;6226010;28;20309;-67
2022/02/05 11:51:09;;;;;;;1.25;0.50;;;34.30;11.20;;;;;;6225995;28;20251;-67
2022/02/05 11:54:17;;;;;;;1.60;0.50;;;35.70;10.50;;;;;;6226497;28;20303;-69
2022/02/05 11:57:41;;;;;;;0.70;0.40;;;36.40;10.10;;;;;;6225576;28;20326;-66
2022/02/05 12:00:56;;;;;;;0.88;0.50;;;37.50;9.90;;;;;;6225561;28;20244;-70
2022/02/05 12:04:10;;;;;;;0.95;0.60;;;38.30;9.50;;;;;;6225960;28;20520;-69
2022/02/05 12:07:15;;;;;;;2.08;0.77;;;39.60;9.50;;;;;;6225650;28;20279;-68
2022/02/05 12:10:38;;;;;;;0.95;0.55;;;41.00;9.00;;;;;;6225683;28;20564;-71
2022/02/05 12:13:44;;;;;;;0.98;0.80;;;40.50;8.60;;;;;;6225282;28;20243;-69
2022/02/05 12:17:13;;;;;;;0.80;0.50;;;40.70;8.70;;;;;;6226432;28;20672;-66
2022/02/05 12:20:23;;;;;;;0.90;0.40;;;41.10;8.60;;;;;;6225854;28;20208;-66
2022/02/05 12:23:33;;;;;;;4.10;0.60;;;40.40;8.30;;;;;;6222786;28;20237;-69
2022/02/05 12:26:46;;;;;;;0.75;0.40;;;38.90;8.70;;;;;;6218516;28;20669;-67
2022/02/05 12:29:49;;;;;;;1.77;0.60;;;38.40;9.00;;;;;;6224740;28;20244;-68
2022/02/05 12:32:54;;;;;;;0.60;0.30;;;38.90;8.60;;;;;;6221956;28;20236;-68
2022/02/05 12:35:57;;;;;;;1.05;0.30;;;38.50;8.80;;;;;;6205845;28;20233;-67
2022/02/05 12:39:01;;;;;;;0.90;0.47;;;38.30;8.90;;;;;;6210302;28;20220;-68
2022/02/05 12:42:12;;;;;;;1.60;0.47;;;39.60;8.60;;;;;;6229821;28;20298;-67
2022/02/05 12:45:19;;;;;;;0.90;0.52;;;40.70;8.30;;;;;;6230128;28;20220;-67
2022/02/05 12:48:27;;;;;;;0.60;0.30;;;40.10;8.20;;;;;;6229874;28;20236;-68
2022/02/05 12:51:32;;;;;;;0.80;0.45;;;40.40;7.90;;;;;;6229678;28;20267;-68
2022/02/05 12:54:36;;;;;;;0.70;0.35;;;40.80;7.60;;;;;;6228323;28;20310;-68
2022/02/05 12:57:44;;;;;;;0.93;0.40;;;38.10;8.00;;;;;;6229347;28;20247;-68
2022/02/05 13:01:06;;;;;;;0.80;0.47;;;37.30;8.50;;;;;;6229068;28;20288;-70
2022/02/05 13:04:16;;;;;;;0.90;0.50;;;37.90;8.50;;;;;;6228934;28;20701;-66
2022/02/05 13:07:21;;;;;;;1.00;0.68;;;39.00;8.60;;;;;;6228836;28;20657;-66
2022/02/05 13:10:25;;;;;;;1.67;0.35;;;38.10;8.10;;;;;;6229460;28;20677;-70
2022/02/05 13:13:28;;;;;;;1.50;0.40;;;35.70;9.80;;;;;;6229223;28;20560;-70
2022/02/05 13:16:48;;;;;;;1.60;0.50;;;34.00;10.60;;;;;;6229853;28;20240;-68
2022/02/05 13:26:54;;;;;;;0.80;0.43;;;29.80;11.30;;;;;;6229080;28;20228;-68
2022/02/05 13:33:35;;;;;;;7.43;1.47;;;30.30;12.00;;;;;;6240528;28;20234;-69
2022/02/05 13:33:50;;;;;;;0.70;0.40;;;30.20;12.00;;;;;;6219188;28;20334;-68
2022/02/05 13:37:02;;;;;;;2.40;0.60;;;28.20;12.30;;;;;;6226926;28;20913;-68
2022/02/05 13:40:08;;;;;;;1.23;0.45;;;27.20;13.30;;;;;;6227389;28;20435;-67
2022/02/05 13:43:18;;;;;;;0.80;0.40;;;28.80;13.60;;;;;;6228172;28;20263;-68
2022/02/05 13:46:21;;;;;;;0.87;0.50;;;29.80;11.60;;;;;;6228719;28;20248;-69
2022/02/05 13:49:24;;;;;;;0.70;0.47;;;31.00;12.60;;;;;;6227908;28;20232;-70
2022/02/05 13:52:39;;;;;;;1.20;0.73;;;33.00;10.60;;;;;;6227702;28;20653;-69
2022/02/05 13:55:44;;;;;;;2.03;0.40;;;33.30;9.80;;;;;;6226850;28;20256;-68
2022/02/05 13:58:47;;;;;;;0.60;0.30;;;32.90;10.20;;;;;;6227527;28;20259;-67
2022/02/05 14:01:50;;;;;;;2.80;0.40;;;32.80;9.90;;;;;;6227423;28;20241;-67
2022/02/05 14:05:10;;;;;;;0.60;0.30;;;31.30;10.30;;;;;;6223867;28;20235;-67
2022/02/05 14:08:27;;;;;;;0.60;0.30;;;29.80;10.60;;;;;;6227363;28;20246;-66
2022/02/05 14:11:32;;;;;;;1.00;0.40;;;28.40;10.50;;;;;;6226338;28;20241;-67
2022/02/05 14:14:35;;;;;;;0.90;0.60;;;27.90;10.50;;;;;;6226838;28;20676;-68
2022/02/05 14:17:39;;;;;;;0.90;0.70;;;27.20;12.50;;;;;;6227929;28;20243;-67
2022/02/05 14:20:53;;;;;;;0.80;0.50;;;26.00;12.40;;;;;;6228301;28;20547;-67
2022/02/05 14:23:57;;;;;;;0.87;0.40;;;24.70;15.60;;;;;;6228134;28;20240;-67
2022/02/05 14:27:11;;;;;;;1.60;0.80;;;23.60;13.10;;;;;;6223623;28;20286;-66
2022/02/05 14:30:15;;;;;;;1.30;0.70;;;22.50;13.20;;;;;;6228519;28;20302;-67
2022/02/05 14:33:20;;;;;;;1.10;0.70;;;21.30;13.40;;;;;;6226935;28;20234;-67
2022/02/05 14:36:39;;;;;;;0.70;0.40;;;20.00;13.60;;;;;;6218741;28;20245;-68
2022/02/05 14:43:04;;;;;;;1.17;0.57;;;17.80;14.70;;;;;;6202335;28;20247;-68
2022/02/05 14:46:07;;;;;;;1.70;0.50;;;17.10;14.90;;;;;;6202144;28;20477;-67
2022/02/05 14:49:13;;;;;;;1.53;0.70;;;16.60;15.50;;;;;;6201836;28;20484;-68
2022/02/05 14:52:16;;;;;;;0.50;0.47;;;16.10;15.80;;;;;;6202220;28;20473;-66
2022/02/05 14:55:21;;;;;;;1.83;0.37;;;15.60;16.30;;;;;;6206049;28;20480;-66
2022/02/05 14:58:24;;;;;;;1.00;0.60;;;15.20;16.40;;;;;;6226185;28;20480;-66
2022/02/05 15:01:28;;;;;;;1.13;0.80;;;15.00;17.00;;;;;;6226542;28;20468;-65
2022/02/05 15:04:31;;;;;;;1.00;0.50;;;14.60;17.20;;;;;;6227239;28;20545;-65
2022/02/05 15:07:35;;;;;;;0.80;0.67;;;14.60;17.10;;;;;;6227474;28;20479;-66
2022/02/05 15:10:40;;;;;;;0.50;0.50;;;14.50;17.20;;;;;;6226469;28;20848;-66
2022/02/05 15:13:48;;;;;;;1.03;0.60;;;14.30;17.00;;;;;;6226223;28;20476;-66
2022/02/05 15:16:51;;;;;;;0.63;0.60;;;14.10;17.00;;;;;;6226540;28;20839;-66
2022/02/05 15:19:54;;;;;;;1.00;0.80;;;13.80;17.30;;;;;;6225941;28;20817;-64
2022/02/05 15:22:57;;;;;;;1.67;0.83;;;13.60;17.30;;;;;;6226097;28;20488;-64
2022/02/05 15:26:03;;;;;;;2.60;1.80;;;13.40;17.40;;;;;;6226428;28;20787;-65
2022/02/05 15:29:08;;;;;;;4.20;1.40;;;13.20;17.50;;;;;;6225966;28;20441;-65
2022/02/05 15:32:12;;;;;;;2.83;1.40;;;13.00;17.60;;;;;;6226484;28;20468;-66
2022/02/05 15:35:15;;;;;;;2.47;1.10;;;12.80;17.80;;;;;;6226393;28;20448;-66
2022/02/05 15:38:25;;;;;;;2.73;1.60;;;12.60;18.00;;;;;;6204801;28;20858;-65
2022/02/05 15:45:09;;;;;;;5.30;4.27;;;12.30;18.60;;;;;;6220906;28;20995;-65
2022/02/05 15:48:12;;;;;;;5.47;4.27;;;12.00;33.40;;;;;;6203897;28;20496;-66
2022/02/05 15:51:16;;;;;;;5.30;4.80;;;11.90;34.80;;;;;;6208202;28;20496;-65
2022/02/05 15:54:22;;;;;;;6.17;4.40;;;11.90;38.10;;;;;;6216059;28;20482;-66
2022/02/05 15:57:36;;;;;;;4.67;4.20;;;11.70;40.50;;;;;;6225424;28;20484;-66
2022/02/05 16:00:39;;;;;;;4.30;3.10;;;11.70;40.50;;;;;;6225472;28;20549;-65
2022/02/05 16:03:43;;;;;;;5.47;4.97;;;11.40;33.90;;;;;;6230428;28;20475;-66
2022/02/05 16:06:46;;;;;;;5.87;5.00;;;11.20;40.30;;;;;;6225760;28;20487;-66
2022/02/05 16:09:49;;;;;;;6.63;5.87;;;11.00;44.30;;;;;;6225691;28;20606;-66
2022/02/05 16:12:54;;;;;;;8.90;5.23;;;10.80;45.90;;;;;;6225623;28;20480;-66
2022/02/05 16:15:57;;;;;;;8.40;5.90;;;10.70;46.50;;;;;;6223747;28;20498;-67
2022/02/05 16:19:00;;;;;;;7.23;5.70;;;10.70;46.90;;;;;;6224927;28;20467;-66
2022/02/05 16:22:04;;;;;;;10.20;5.40;;;10.40;49.00;;;;;;6225100;28;20951;-66
2022/02/05 16:25:08;;;;;;;6.10;5.50;;;10.20;50.00;;;;;;6225536;28;20475;-66
2022/02/05 16:28:12;;;;;;;6.73;6.13;;;10.30;50.40;;;;;;6225313;28;20490;-67
2022/02/05 16:31:16;;;;;;;9.03;7.77;;;10.10;51.00;;;;;;6225448;28;20582;-67
2022/02/05 16:34:20;;;;;;;7.57;6.40;;;10.20;52.30;;;;;;6225453;28;20794;-67
2022/02/05 16:37:23;;;;;;;7.07;6.37;;;10.10;53.10;;;;;;6225636;28;20948;-67
2022/02/05 16:40:29;;;;;;;10.33;7.33;;;9.80;55.80;;;;;;6225325;28;20490;-67
2022/02/05 16:43:34;;;;;;;8.60;7.77;;;9.60;57.40;;;;;;6221326;28;20485;-67
2022/02/05 16:46:40;;;;;;;8.30;7.50;;;9.50;58.10;;;;;;6226432;28;20483;-65
2022/02/05 16:49:43;;;;;;;8.27;6.73;;;9.30;58.80;;;;;;6231288;28;20491;-66
2022/02/05 16:52:50;;;;;;;8.57;7.17;;;9.00;60.10;;;;;;6224666;28;20845;-66
2022/02/05 16:55:53;;;;;;;7.93;7.13;;;9.00;60.40;;;;;;6224953;28;20546;-66
2022/02/05 16:58:58;;;;;;;9.17;6.87;;;9.00;60.70;;;;;;6224546;28;20483;-64
2022/02/05 17:02:01;;;;;;;8.90;8.00;;;8.90;61.70;;;;;;6223725;28;20483;-65
2022/02/05 17:05:05;;;;;;;8.90;7.60;;;8.90;61.30;;;;;;6222978;28;20483;-65
2022/02/05 17:08:10;;;;;;;11.10;8.03;;;8.90;61.50;;;;;;6224945;28;20463;-65
2022/02/05 17:11:13;;;;;;;11.27;9.37;;;8.80;61.80;;;;;;6224713;28;20514;-66
2022/02/05 17:14:20;;;;;;;11.30;8.17;;;8.70;61.80;;;;;;6224450;28;20871;-66
2022/02/05 17:17:26;;;;;;;8.43;7.63;;;8.60;62.30;;;;;;6224786;28;20443;-66
2022/02/05 17:20:32;;;;;;;9.60;8.00;;;8.50;62.90;;;;;;6226762;28;20459;-64
2022/02/05 17:23:36;;;;;;;8.50;7.60;;;8.50;62.80;;;;;;6225497;28;20472;-64
2022/02/05 17:26:40;;;;;;;10.03;8.43;;;8.60;62.50;;;;;;6228770;28;20537;-66
2022/02/05 17:29:45;;;;;;;9.23;7.47;;;8.60;62.40;;;;;;6230130;28;20475;-66
2022/02/05 17:32:48;;;;;;;10.53;8.70;;;8.60;62.10;;;;;;6228769;28;20974;-67
2022/02/05 17:36:01;;;;;;;8.83;7.93;;;8.60;62.00;;;;;;6229880;28;20791;-66
2022/02/05 17:39:05;;;;;;;11.97;8.03;;;8.60;61.70;;;;;;6228786;28;20948;-65
2022/02/05 17:42:09;;;;;;;12.00;8.27;;;8.60;62.00;;;;;;6228789;28;20833;-66
2022/02/05 17:45:13;;;;;;;10.33;8.37;;;8.60;62.00;;;;;;6228562;28;20475;-65